sensor_id;sensor_type;location;lat;lon;timestamp;temperature;humidity
11824;DHT22;5969;50.780;7.726;2023-04-24T00:00:30;10.40;99.90
11824;DHT22;5969;50.780;7.726;2023-04-24T00:03:34;10.30;99.90
11824;DHT22;5969;50.780;7.726;2023-04-24T00:06:26;10.30;99.90
11824;DHT22;5969;50.780;7.726;2023-04-24T00:09:46;10.40;99.90
11824;DHT22;5969;50.780;7.726;2023-04-24T00:12:20;10.40;99.90
11824;DHT22;5969;50.780;7.726;2023-04-24T00:14:47;10.20;99.90
11824;DHT22;5969;50.780;7.726;2023-04-24T00:17:24;10.40;99.90
11824;DHT22;5969;50.780;7.726;2023-04-24T00:20:08;10.30;99.90
11824;DHT22;5969;50.780;7.726;2023-04-24T00:23:03;10.30;99.90
11824;DHT22;5969;50.780;7.726;2023-04-24T00:26:33;10.20;99.90
11824;DHT22;5969;50.780;7.726;2023-04-24T00:29:13;10.30;99.90
11824;DHT22;5969;50.780;7.726;2023-04-24T00:32:16;10.30;99.90
11824;DHT22;5969;50.780;7.726;2023-04-24T00:35:23;10.30;99.90
11824;DHT22;5969;50.780;7.726;2023-04-24T00:41:36;10.30;99.90
11824;DHT22;5969;50.780;7.726;2023-04-24T00:44:31;10.30;99.90
11824;DHT22;5969;50.780;7.726;2023-04-24T00:50:46;10.30;99.90
11824;DHT22;5969;50.780;7.726;2023-04-24T01:03:40;10.10;99.90
11824;DHT22;5969;50.780;7.726;2023-04-24T01:06:08;10.00;99.90
11824;DHT22;5969;50.780;7.726;2023-04-24T01:08:51;10.10;99.90
11824;DHT22;5969;50.780;7.726;2023-04-24T01:11:31;9.80;99.90
11824;DHT22;5969;50.780;7.726;2023-04-24T01:14:06;9.80;99.90
11824;DHT22;5969;50.780;7.726;2023-04-24T01:19:50;9.70;99.90
11824;DHT22;5969;50.780;7.726;2023-04-24T01:22:32;9.70;99.90
11824;DHT22;5969;50.780;7.726;2023-04-24T01:29:09;9.80;99.90
11824;DHT22;5969;50.780;7.726;2023-04-24T01:31:44;9.80;99.90
11824;DHT22;5969;50.780;7.726;2023-04-24T01:44:31;9.70;99.90
11824;DHT22;5969;50.780;7.726;2023-04-24T01:54:18;9.80;99.90
11824;DHT22;5969;50.780;7.726;2023-04-24T05:27:13;8.10;99.90
11824;DHT22;5969;50.780;7.726;2023-04-24T05:29:44;8.10;99.90
11824;DHT22;5969;50.780;7.726;2023-04-24T05:32:17;8.20;99.90
11824;DHT22;5969;50.780;7.726;2023-04-24T05:34:58;8.20;99.90
11824;DHT22;5969;50.780;7.726;2023-04-24T05:37:28;8.00;99.90
11824;DHT22;5969;50.780;7.726;2023-04-24T05:40:00;8.10;99.90
11824;DHT22;5969;50.780;7.726;2023-04-24T05:42:30;8.10;99.90
11824;DHT22;5969;50.780;7.726;2023-04-24T05:44:57;8.10;99.90
11824;DHT22;5969;50.780;7.726;2023-04-24T05:47:24;8.20;99.90
11824;DHT22;5969;50.780;7.726;2023-04-24T15:03:52;11.40;99.90
11824;DHT22;5969;50.780;7.726;2023-04-24T15:06:19;11.30;99.90
11824;DHT22;5969;50.780;7.726;2023-04-24T15:08:45;11.40;99.90
11824;DHT22;5969;50.780;7.726;2023-04-24T15:11:12;12.90;99.90
11824;DHT22;5969;50.780;7.726;2023-04-24T15:13:39;15.30;99.90
11824;DHT22;5969;50.780;7.726;2023-04-24T15:16:06;17.00;99.90
11824;DHT22;5969;50.780;7.726;2023-04-24T15:18:32;18.60;99.90
11824;DHT22;5969;50.780;7.726;2023-04-24T15:21:00;18.90;99.90
11824;DHT22;5969;50.780;7.726;2023-04-24T15:23:27;19.00;99.90
11824;DHT22;5969;50.780;7.726;2023-04-24T15:25:54;18.70;99.90
11824;DHT22;5969;50.780;7.726;2023-04-24T15:28:21;19.80;99.90
11824;DHT22;5969;50.780;7.726;2023-04-24T15:30:48;21.50;99.90
11824;DHT22;5969;50.780;7.726;2023-04-24T15:33:15;21.00;99.10
11824;DHT22;5969;50.780;7.726;2023-04-24T15:35:41;19.90;97.40
11824;DHT22;5969;50.780;7.726;2023-04-24T15:38:10;19.40;99.10
11824;DHT22;5969;50.780;7.726;2023-04-24T15:40:37;18.20;99.90
11824;DHT22;5969;50.780;7.726;2023-04-24T15:43:03;18.00;99.60
11824;DHT22;5969;50.780;7.726;2023-04-24T15:45:30;16.70;99.90
11824;DHT22;5969;50.780;7.726;2023-04-24T15:47:57;15.90;99.90
11824;DHT22;5969;50.780;7.726;2023-04-24T15:50:25;17.10;99.90
11824;DHT22;5969;50.780;7.726;2023-04-24T15:52:52;19.00;99.90
11824;DHT22;5969;50.780;7.726;2023-04-24T15:55:20;18.70;99.90
11824;DHT22;5969;50.780;7.726;2023-04-24T15:57:46;18.60;97.90
11824;DHT22;5969;50.780;7.726;2023-04-24T16:00:14;18.20;98.50
11824;DHT22;5969;50.780;7.726;2023-04-24T16:02:41;18.90;98.00
11824;DHT22;5969;50.780;7.726;2023-04-24T16:05:08;17.90;98.30
11824;DHT22;5969;50.780;7.726;2023-04-24T16:07:39;16.90;99.70
11824;DHT22;5969;50.780;7.726;2023-04-24T16:10:07;15.70;99.90
11824;DHT22;5969;50.780;7.726;2023-04-24T16:12:35;15.00;99.90
11824;DHT22;5969;50.780;7.726;2023-04-24T16:15:03;14.40;99.90
11824;DHT22;5969;50.780;7.726;2023-04-24T16:17:30;14.20;99.90
11824;DHT22;5969;50.780;7.726;2023-04-24T16:19:56;13.50;99.90
11824;DHT22;5969;50.780;7.726;2023-04-24T16:22:23;13.10;99.90
11824;DHT22;5969;50.780;7.726;2023-04-24T16:24:50;13.20;99.90
11824;DHT22;5969;50.780;7.726;2023-04-24T16:27:16;13.60;99.90
11824;DHT22;5969;50.780;7.726;2023-04-24T16:29:45;13.80;99.90
11824;DHT22;5969;50.780;7.726;2023-04-24T16:32:11;14.20;99.90
11824;DHT22;5969;50.780;7.726;2023-04-24T16:34:38;14.30;99.90
11824;DHT22;5969;50.780;7.726;2023-04-24T16:37:05;14.40;99.90
11824;DHT22;5969;50.780;7.726;2023-04-24T16:39:32;14.40;99.90
11824;DHT22;5969;50.780;7.726;2023-04-24T16:41:59;13.90;99.90
11824;DHT22;5969;50.780;7.726;2023-04-24T16:44:26;13.40;99.90
11824;DHT22;5969;50.780;7.726;2023-04-24T16:46:54;13.50;99.90
11824;DHT22;5969;50.780;7.726;2023-04-24T16:49:21;13.30;99.90
11824;DHT22;5969;50.780;7.726;2023-04-24T16:51:48;13.30;99.90
11824;DHT22;5969;50.780;7.726;2023-04-24T16:54:14;13.60;99.90
11824;DHT22;5969;50.780;7.726;2023-04-24T16:56:41;13.50;99.90
11824;DHT22;5969;50.780;7.726;2023-04-24T16:59:08;13.50;99.90
11824;DHT22;5969;50.780;7.726;2023-04-24T17:01:35;13.20;99.90
11824;DHT22;5969;50.780;7.726;2023-04-24T17:04:03;13.00;99.90
11824;DHT22;5969;50.780;7.726;2023-04-24T17:06:30;12.80;99.90
11824;DHT22;5969;50.780;7.726;2023-04-24T17:08:56;12.60;99.90
11824;DHT22;5969;50.780;7.726;2023-04-24T17:11:26;12.30;99.90
11824;DHT22;5969;50.780;7.726;2023-04-24T17:13:52;12.00;99.90
11824;DHT22;5969;50.780;7.726;2023-04-24T17:16:19;11.80;99.90
11824;DHT22;5969;50.780;7.726;2023-04-24T17:18:46;11.70;99.90
11824;DHT22;5969;50.780;7.726;2023-04-24T17:21:14;11.50;99.90
11824;DHT22;5969;50.780;7.726;2023-04-24T17:23:42;11.30;99.90
11824;DHT22;5969;50.780;7.726;2023-04-24T17:26:09;11.30;99.90
11824;DHT22;5969;50.780;7.726;2023-04-24T17:28:37;11.20;99.90
11824;DHT22;5969;50.780;7.726;2023-04-24T17:31:03;11.10;99.90
11824;DHT22;5969;50.780;7.726;2023-04-24T17:33:30;11.10;99.90
11824;DHT22;5969;50.780;7.726;2023-04-24T17:35:58;11.10;99.90
11824;DHT22;5969;50.780;7.726;2023-04-24T17:38:27;11.10;99.90
11824;DHT22;5969;50.780;7.726;2023-04-24T17:40:54;10.90;99.90
11824;DHT22;5969;50.780;7.726;2023-04-24T17:43:22;10.90;99.90
11824;DHT22;5969;50.780;7.726;2023-04-24T17:45:51;10.80;99.90
11824;DHT22;5969;50.780;7.726;2023-04-24T17:48:20;10.80;99.90
11824;DHT22;5969;50.780;7.726;2023-04-24T17:50:47;10.70;99.90
11824;DHT22;5969;50.780;7.726;2023-04-24T17:53:14;10.70;99.90
11824;DHT22;5969;50.780;7.726;2023-04-24T17:55:44;10.70;99.90
11824;DHT22;5969;50.780;7.726;2023-04-24T17:58:11;10.70;99.90
11824;DHT22;5969;50.780;7.726;2023-04-24T18:00:38;10.70;99.90
11824;DHT22;5969;50.780;7.726;2023-04-24T18:03:07;10.70;99.90
11824;DHT22;5969;50.780;7.726;2023-04-24T18:05:35;10.70;99.90
11824;DHT22;5969;50.780;7.726;2023-04-24T18:08:03;10.70;99.90
11824;DHT22;5969;50.780;7.726;2023-04-24T18:10:31;10.60;99.90
11824;DHT22;5969;50.780;7.726;2023-04-24T18:12:59;10.50;99.90
11824;DHT22;5969;50.780;7.726;2023-04-24T18:15:26;10.40;99.90
11824;DHT22;5969;50.780;7.726;2023-04-24T18:17:53;10.40;99.90
11824;DHT22;5969;50.780;7.726;2023-04-24T18:20:20;10.30;99.90
11824;DHT22;5969;50.780;7.726;2023-04-24T18:22:47;10.20;99.90
11824;DHT22;5969;50.780;7.726;2023-04-24T18:25:14;10.10;99.90
11824;DHT22;5969;50.780;7.726;2023-04-24T18:27:41;10.10;99.90
11824;DHT22;5969;50.780;7.726;2023-04-24T18:30:10;10.10;99.90
11824;DHT22;5969;50.780;7.726;2023-04-24T18:32:37;10.10;99.90
11824;DHT22;5969;50.780;7.726;2023-04-24T18:35:04;10.10;99.90
11824;DHT22;5969;50.780;7.726;2023-04-24T18:37:41;10.00;99.90
11824;DHT22;5969;50.780;7.726;2023-04-24T18:40:10;10.10;99.90
11824;DHT22;5969;50.780;7.726;2023-04-24T18:42:37;10.00;99.90
11824;DHT22;5969;50.780;7.726;2023-04-24T18:45:05;9.90;99.90
11824;DHT22;5969;50.780;7.726;2023-04-24T18:47:33;9.80;99.90
11824;DHT22;5969;50.780;7.726;2023-04-24T18:50:00;9.80;99.90
11824;DHT22;5969;50.780;7.726;2023-04-24T18:52:28;9.90;99.90
11824;DHT22;5969;50.780;7.726;2023-04-24T18:54:55;9.80;99.90
11824;DHT22;5969;50.780;7.726;2023-04-24T18:57:22;9.80;99.90
11824;DHT22;5969;50.780;7.726;2023-04-24T18:59:49;9.70;99.90
11824;DHT22;5969;50.780;7.726;2023-04-24T19:02:15;9.80;99.90
11824;DHT22;5969;50.780;7.726;2023-04-24T19:04:44;9.80;99.90
11824;DHT22;5969;50.780;7.726;2023-04-24T19:07:11;9.70;99.90
11824;DHT22;5969;50.780;7.726;2023-04-24T19:09:37;9.70;99.90
11824;DHT22;5969;50.780;7.726;2023-04-24T19:12:05;9.70;99.90
11824;DHT22;5969;50.780;7.726;2023-04-24T19:14:31;9.50;99.90
11824;DHT22;5969;50.780;7.726;2023-04-24T19:16:58;9.50;99.90
11824;DHT22;5969;50.780;7.726;2023-04-24T19:19:25;9.40;99.90
11824;DHT22;5969;50.780;7.726;2023-04-24T19:21:54;9.40;99.90
11824;DHT22;5969;50.780;7.726;2023-04-24T19:24:21;9.40;99.90
11824;DHT22;5969;50.780;7.726;2023-04-24T19:26:48;9.40;99.90
11824;DHT22;5969;50.780;7.726;2023-04-24T19:29:14;9.40;99.90
11824;DHT22;5969;50.780;7.726;2023-04-24T19:31:41;9.40;99.90
11824;DHT22;5969;50.780;7.726;2023-04-24T19:34:08;9.30;99.90
11824;DHT22;5969;50.780;7.726;2023-04-24T19:36:35;9.30;99.90
11824;DHT22;5969;50.780;7.726;2023-04-24T19:39:03;9.30;99.90
11824;DHT22;5969;50.780;7.726;2023-04-24T19:41:30;9.30;99.90
11824;DHT22;5969;50.780;7.726;2023-04-24T19:43:57;9.20;99.90
11824;DHT22;5969;50.780;7.726;2023-04-24T19:46:23;9.20;99.90
11824;DHT22;5969;50.780;7.726;2023-04-24T19:48:50;9.10;99.90
11824;DHT22;5969;50.780;7.726;2023-04-24T19:51:17;9.00;99.90
11824;DHT22;5969;50.780;7.726;2023-04-24T19:53:44;9.00;99.90
11824;DHT22;5969;50.780;7.726;2023-04-24T19:56:12;9.00;99.90
11824;DHT22;5969;50.780;7.726;2023-04-24T19:58:38;9.00;99.90
11824;DHT22;5969;50.780;7.726;2023-04-24T20:01:05;9.00;99.90
11824;DHT22;5969;50.780;7.726;2023-04-24T20:03:32;8.90;99.90
11824;DHT22;5969;50.780;7.726;2023-04-24T20:05:59;8.90;99.90
11824;DHT22;5969;50.780;7.726;2023-04-24T20:08:25;8.80;99.90
11824;DHT22;5969;50.780;7.726;2023-04-24T20:10:52;8.90;99.90
11824;DHT22;5969;50.780;7.726;2023-04-24T20:13:23;8.90;99.90
11824;DHT22;5969;50.780;7.726;2023-04-24T20:15:52;8.90;99.90
11824;DHT22;5969;50.780;7.726;2023-04-24T20:18:18;8.90;99.90
11824;DHT22;5969;50.780;7.726;2023-04-24T20:20:45;8.90;99.90
11824;DHT22;5969;50.780;7.726;2023-04-24T20:23:13;9.00;99.90
11824;DHT22;5969;50.780;7.726;2023-04-24T20:25:40;9.00;99.90
11824;DHT22;5969;50.780;7.726;2023-04-24T20:28:06;9.00;99.90
11824;DHT22;5969;50.780;7.726;2023-04-24T20:30:34;9.00;99.90
11824;DHT22;5969;50.780;7.726;2023-04-24T20:33:02;9.00;99.90
11824;DHT22;5969;50.780;7.726;2023-04-24T20:35:29;8.90;99.90
11824;DHT22;5969;50.780;7.726;2023-04-24T20:37:55;8.90;99.90
11824;DHT22;5969;50.780;7.726;2023-04-24T20:40:24;8.90;99.90
11824;DHT22;5969;50.780;7.726;2023-04-24T20:42:50;8.90;99.90
11824;DHT22;5969;50.780;7.726;2023-04-24T20:45:17;8.80;99.90
11824;DHT22;5969;50.780;7.726;2023-04-24T20:47:45;8.80;99.90
11824;DHT22;5969;50.780;7.726;2023-04-24T20:50:12;8.80;99.90
11824;DHT22;5969;50.780;7.726;2023-04-24T20:52:39;8.80;99.90
11824;DHT22;5969;50.780;7.726;2023-04-24T20:55:07;8.90;99.90
11824;DHT22;5969;50.780;7.726;2023-04-24T20:57:34;8.80;99.90
11824;DHT22;5969;50.780;7.726;2023-04-24T21:00:00;8.80;99.90
11824;DHT22;5969;50.780;7.726;2023-04-24T21:02:32;8.80;99.90
11824;DHT22;5969;50.780;7.726;2023-04-24T21:05:00;8.70;99.90
11824;DHT22;5969;50.780;7.726;2023-04-24T21:07:28;8.70;99.90
11824;DHT22;5969;50.780;7.726;2023-04-24T21:09:56;8.70;99.90
11824;DHT22;5969;50.780;7.726;2023-04-24T21:12:23;8.60;99.90
11824;DHT22;5969;50.780;7.726;2023-04-24T21:14:50;8.60;99.90
11824;DHT22;5969;50.780;7.726;2023-04-24T21:17:16;8.60;99.90
11824;DHT22;5969;50.780;7.726;2023-04-24T21:19:43;8.60;99.90
11824;DHT22;5969;50.780;7.726;2023-04-24T21:22:12;8.50;99.90
11824;DHT22;5969;50.780;7.726;2023-04-24T21:24:38;8.50;99.90
11824;DHT22;5969;50.780;7.726;2023-04-24T21:27:05;8.50;99.90
11824;DHT22;5969;50.780;7.726;2023-04-24T21:29:32;8.50;99.90
11824;DHT22;5969;50.780;7.726;2023-04-24T21:32:00;8.40;99.90
11824;DHT22;5969;50.780;7.726;2023-04-24T21:34:26;8.40;99.90
11824;DHT22;5969;50.780;7.726;2023-04-24T21:36:53;8.40;99.90
11824;DHT22;5969;50.780;7.726;2023-04-24T21:39:21;8.40;99.90
11824;DHT22;5969;50.780;7.726;2023-04-24T21:41:48;8.40;99.90
11824;DHT22;5969;50.780;7.726;2023-04-24T21:44:15;8.40;99.90
11824;DHT22;5969;50.780;7.726;2023-04-24T21:46:42;8.40;99.90
11824;DHT22;5969;50.780;7.726;2023-04-24T21:49:08;8.40;99.90
11824;DHT22;5969;50.780;7.726;2023-04-24T21:51:35;8.40;99.90
11824;DHT22;5969;50.780;7.726;2023-04-24T21:54:02;8.30;99.90
11824;DHT22;5969;50.780;7.726;2023-04-24T21:56:30;8.30;99.90
11824;DHT22;5969;50.780;7.726;2023-04-24T21:58:57;8.30;99.90
11824;DHT22;5969;50.780;7.726;2023-04-24T22:01:24;8.20;99.90
11824;DHT22;5969;50.780;7.726;2023-04-24T22:03:51;8.20;99.90
11824;DHT22;5969;50.780;7.726;2023-04-24T22:06:17;8.10;99.90
11824;DHT22;5969;50.780;7.726;2023-04-24T22:08:44;8.10;99.90
11824;DHT22;5969;50.780;7.726;2023-04-24T22:11:12;8.00;99.90
11824;DHT22;5969;50.780;7.726;2023-04-24T22:13:40;8.00;99.90
11824;DHT22;5969;50.780;7.726;2023-04-24T22:16:07;8.00;99.90
11824;DHT22;5969;50.780;7.726;2023-04-24T22:18:33;7.90;99.90
11824;DHT22;5969;50.780;7.726;2023-04-24T22:21:00;7.90;99.90
11824;DHT22;5969;50.780;7.726;2023-04-24T22:23:27;7.80;99.90
11824;DHT22;5969;50.780;7.726;2023-04-24T22:25:53;7.80;99.90
11824;DHT22;5969;50.780;7.726;2023-04-24T22:28:21;7.80;99.90
11824;DHT22;5969;50.780;7.726;2023-04-24T22:30:49;7.70;99.90
11824;DHT22;5969;50.780;7.726;2023-04-24T22:33:15;7.60;99.90
11824;DHT22;5969;50.780;7.726;2023-04-24T22:35:42;7.50;99.90
11824;DHT22;5969;50.780;7.726;2023-04-24T22:38:09;7.40;99.90
11824;DHT22;5969;50.780;7.726;2023-04-24T22:40:35;7.40;99.90
11824;DHT22;5969;50.780;7.726;2023-04-24T22:43:02;7.40;99.90
11824;DHT22;5969;50.780;7.726;2023-04-24T22:45:29;7.30;99.90
11824;DHT22;5969;50.780;7.726;2023-04-24T22:47:57;7.20;99.90
11824;DHT22;5969;50.780;7.726;2023-04-24T22:50:24;7.10;99.90
11824;DHT22;5969;50.780;7.726;2023-04-24T22:52:52;7.00;99.90
11824;DHT22;5969;50.780;7.726;2023-04-24T22:55:18;7.00;99.90
11824;DHT22;5969;50.780;7.726;2023-04-24T22:57:47;7.00;99.90
